San Carlos, CA

7:53 PM PST on December 21, 2014 (GMT -0800)
Devonshire Canyon | Change Station
CLOSE
Current Station
Personal Weather Station
Location: San Carlos, CA
Elevation: 174 ft
Nearby Weather Stations
Active Advisory: Coastal Flood Advisory Active Notice: Public Information Statement

Elev 174 ft 37.50 °N, 122.27 °W | Updated 5 seconds ago

Partly Cloudy
Partly Cloudy
59.5 °F
Feels Like 59.5 °F
N
4.3
Wind Variable Wind from NNW
Gusts 4.9 mph

Today
High -- | Low -- °F
--% Chance of Precip.
Yesterday
High -- | Low -- °F
Precip. -- in
7:20 AM 4:54 PM
New Moon, 0% visible
Pressure 30.30 in
Visibility 10.0 miles
Clouds Few 1300 ft
Dew Point 58 °F
Humidity 96%
Rainfall 0.00 in
Snow Depth Not available.
UV 0.0 out of 12
Pollen 3.40 out of 12
Air Quality Not available.
Flu Activity Not available.
METAR KSQL 220349Z 31003KT 10SM FEW013 15/14 A3030

More Conditions Fewer Conditions

Pressure 30.30 in
Visibility 10.0 miles
Clouds Few 1300 ft
Dew Point 58 °F
Humidity 96%
Rainfall 0.00 in
Snow Depth Not available.
UV 0.0 out of 12
Pollen 3.40 out of 12
Air Quality Not available.
Flu Activity Not available.
METAR KSQL 220349Z 31003KT 10SM FEW013 15/14 A3030

More Conditions Fewer Conditions

10-Day Weather Forecast

Almanac

Astronomy

Dec. 21, 2014 Rise Set
Actual Time
Civil Twilight
Nautical Twilight
Astronomical Twilight
Moon
Length of Visible Light
Length of Day
Tomorrow will be .
, % of the Moon is Illuminated

Today's Extremes

State Highs State Lows

Community

WunderPhotos

Upload Photos

1,779,531 photos uploaded!

WunderBlogs® & News

Nearby

Air Quality

  Air Quality AQ Index Pollutant
Not available.

Snow Depth

Station Depth Elevation

Earthquake Activity

City Distance Mag. Time & Date
Minimum magnitude displayed is 2.5.

Coastal Water Temperatures

Place Temperature

Nearby Weather Stations